Current Weather

Lansing Municipal Ap

Lansing Municipal Ap, Illinois (KIGQ)

Report from: Monday, May 23, 2022 2:55 AM CDT
Current time: Monday, May 23, 2022 3:10 AM CDT

Nearby weather
Weather history
Weather forecast

Temperature6.1°C (43.0°F)
Dew point3.8°C (38.8°F)
Winds Calm
Visibility10 mi. (16.1 km)
Clouds Sky clear
Altimeter30.36 in.Hg (1028 mB)
Relative humidity85 %
Density altitude-1,458 ft. (-444 m)
Remarks Fully automated report
Automated weather observing station with precipitation discriminator
Flight conditions Visual Meteorological Conditions
Raw dataKIGQ 230755Z AUTO 00000KT 10SM CLR 06/04 A3036 RMK AO2 T00610038
An error has occurred. This application may no longer respond until reloaded. Reload 🗙